Comodoro Rivadavia, Comodoro Rivadavia International Airport (SAVC)

NameComodoro Rivadavia International Airport
CityComodoro Rivadavia
CountryArgentina
ICAOSAVC
IATACRD
Altitude58 m
CoordinatesGoogle Map
Live Air TrafficLiveATC.net
METARSAVC 251700Z 00000KT 5000 -DZRA FEW018 SCT020 BKN050 09/08 Q1026
2020-04-25 17:00:00 Wind: North (0°) 0 m/s - Visibility: 5000 m - Weather: Light Drizzle Rain - Temperature: 9 °C - Dew point: 8 °C - Humidity: 93.5% - Pressure: 1026 hPa

Sorry, no flights used the airport in this database.